createdAt,value
2022-08-24T00:00:37.653Z,24.03
2022-08-24T00:03:05.062Z,23.94
2022-08-24T00:05:32.965Z,23.87
2022-08-24T00:08:00.241Z,23.88
2022-08-24T00:10:27.469Z,23.85
2022-08-24T00:12:54.690Z,23.82
2022-08-24T00:15:21.983Z,23.80
2022-08-24T00:17:49.207Z,23.75
2022-08-24T00:20:16.563Z,23.72
2022-08-24T00:22:43.897Z,23.67
2022-08-24T00:25:11.999Z,23.63
2022-08-24T00:27:40.986Z,23.59
2022-08-24T00:30:11.166Z,23.55
2022-08-24T00:32:38.780Z,23.51
2022-08-24T00:35:07.007Z,23.49
2022-08-24T00:37:34.997Z,23.43
2022-08-24T00:40:05.119Z,23.40
2022-08-24T00:42:32.969Z,23.33
2022-08-24T00:45:00.195Z,23.26
2022-08-24T00:47:33.203Z,23.18
2022-08-24T00:50:02.815Z,23.14
2022-08-24T00:52:33.448Z,23.08
2022-08-24T00:55:02.907Z,23.02
2022-08-24T00:57:33.673Z,22.99
2022-08-24T01:00:04.219Z,23.00
2022-08-24T01:02:33.459Z,23.01
2022-08-24T01:05:06.483Z,22.98
2022-08-24T01:07:34.415Z,22.92
2022-08-24T01:10:03.990Z,22.81
2022-08-24T01:12:33.229Z,22.71
2022-08-24T01:15:01.964Z,22.79
2022-08-24T01:17:47.964Z,22.80
2022-08-24T01:20:15.417Z,22.81
2022-08-24T01:22:50.351Z,22.81
2022-08-24T01:25:17.611Z,22.78
2022-08-24T01:27:45.282Z,22.70
2022-08-24T01:30:16.155Z,22.62
2022-08-24T01:32:57.837Z,22.73
2022-08-24T01:35:25.552Z,22.77
2022-08-24T01:37:55.081Z,22.90
2022-08-24T01:40:34.696Z,22.90
2022-08-24T01:43:04.674Z,22.82
2022-08-24T01:45:33.846Z,22.79
2022-08-24T01:48:02.744Z,22.73
2022-08-24T01:50:31.665Z,22.62
2022-08-24T01:53:05.398Z,22.65
2022-08-24T01:55:34.506Z,22.67
2022-08-24T01:58:01.954Z,22.64
2022-08-24T02:00:30.387Z,22.59
2022-08-24T02:02:57.743Z,22.56
2022-08-24T02:05:25.242Z,22.53
2022-08-24T02:07:53.072Z,22.50
2022-08-24T02:10:22.303Z,22.45
2022-08-24T02:12:58.067Z,22.39
2022-08-24T02:15:30.809Z,22.31
2022-08-24T02:17:58.159Z,22.13
2022-08-24T02:20:26.713Z,22.18
2022-08-24T02:22:55.271Z,22.24
2022-08-24T02:25:23.804Z,22.27
2022-08-24T02:27:51.691Z,22.30
2022-08-24T02:30:19.032Z,22.33
2022-08-24T02:32:47.199Z,22.28
2022-08-24T02:35:14.821Z,22.23
2022-08-24T02:37:43.577Z,22.15
2022-08-24T02:40:13.331Z,22.18
2022-08-24T02:42:41.009Z,22.16
2022-08-24T02:45:09.428Z,22.18
2022-08-24T02:47:38.187Z,22.24
2022-08-24T02:50:09.871Z,22.18
2022-08-24T02:52:38.040Z,22.22
2022-08-24T02:55:07.286Z,22.21
2022-08-24T02:57:34.771Z,22.21
2022-08-24T03:00:10.211Z,22.18
2022-08-24T03:02:39.973Z,22.15
2022-08-24T03:05:07.588Z,22.18
2022-08-24T03:07:36.626Z,22.10
2022-08-24T03:10:06.330Z,22.00
2022-08-24T03:12:35.847Z,21.99
2022-08-24T03:15:04.858Z,21.96
2022-08-24T03:17:33.665Z,21.94
2022-08-24T03:20:01.928Z,21.93
2022-08-24T03:22:29.731Z,21.92
2022-08-24T03:24:57.686Z,21.93
2022-08-24T03:27:25.491Z,21.92
2022-08-24T03:29:52.935Z,21.88
2022-08-24T03:32:21.877Z,21.84
2022-08-24T03:34:49.411Z,21.82
2022-08-24T03:37:18.325Z,21.81
2022-08-24T03:39:47.711Z,21.76
2022-08-24T03:42:15.195Z,21.75
2022-08-24T03:44:43.371Z,21.74
2022-08-24T03:47:10.724Z,21.71
2022-08-24T03:49:39.106Z,21.69
2022-08-24T03:52:06.457Z,21.71
2022-08-24T03:54:34.172Z,21.70
2022-08-24T03:57:01.771Z,21.65
2022-08-24T03:59:29.671Z,21.63
2022-08-24T04:01:58.697Z,21.61
2022-08-24T04:04:27.197Z,21.61
2022-08-24T04:06:56.064Z,21.57
2022-08-24T04:09:25.480Z,21.59
2022-08-24T04:11:56.745Z,21.58
2022-08-24T04:14:27.204Z,21.55
2022-08-24T04:17:14.998Z,21.59
2022-08-24T04:19:57.730Z,21.56
2022-08-24T04:22:29.607Z,21.50
2022-08-24T04:24:57.454Z,21.48
2022-08-24T04:27:24.826Z,21.47
2022-08-24T04:29:52.763Z,21.42
2022-08-24T04:32:20.702Z,21.44
2022-08-24T04:34:48.110Z,21.39
2022-08-24T04:37:17.786Z,21.40
2022-08-24T04:39:52.761Z,21.39
2022-08-24T04:42:23.797Z,21.40
2022-08-24T04:44:52.973Z,21.43
2022-08-24T04:47:23.122Z,21.43
2022-08-24T04:49:50.460Z,21.43
2022-08-24T04:52:18.207Z,21.43
2022-08-24T04:54:45.531Z,21.45
2022-08-24T04:57:20.248Z,21.44
2022-08-24T04:59:49.050Z,21.42
2022-08-24T05:02:17.401Z,21.45
2022-08-24T05:04:48.393Z,21.45
2022-08-24T05:07:15.581Z,21.42
2022-08-24T05:09:44.508Z,21.51
2022-08-24T05:12:12.047Z,21.57
2022-08-24T05:14:44.523Z,21.56
2022-08-24T05:17:11.802Z,21.53
2022-08-24T05:19:38.990Z,21.54
2022-08-24T05:22:06.169Z,21.57
2022-08-24T05:24:39.750Z,21.68
2022-08-24T05:27:07.051Z,21.73
2022-08-24T05:29:34.805Z,21.74
2022-08-24T05:32:02.382Z,21.70
2022-08-24T05:34:31.876Z,21.72
2022-08-24T05:36:59.090Z,21.81
2022-08-24T05:39:45.440Z,21.86
2022-08-24T05:42:13.777Z,21.87
2022-08-24T05:44:46.936Z,21.85
2022-08-24T05:47:18.138Z,21.84
2022-08-24T05:49:46.532Z,21.85
2022-08-24T05:52:13.676Z,21.93
2022-08-24T05:54:41.131Z,22.03
2022-08-24T05:57:11.318Z,22.04
2022-08-24T05:59:53.330Z,22.10
2022-08-24T06:02:20.721Z,22.19
2022-08-24T06:04:48.011Z,22.25
2022-08-24T06:07:16.010Z,22.33
2022-08-24T06:09:49.246Z,22.38
2022-08-24T06:12:16.847Z,22.37
2022-08-24T06:14:47.922Z,22.49
2022-08-24T06:17:19.058Z,22.59
2022-08-24T06:19:46.892Z,22.73
2022-08-24T06:22:14.115Z,22.79
2022-08-24T06:25:00.445Z,22.91
2022-08-24T06:27:28.666Z,23.00
2022-08-24T06:29:59.762Z,23.15
2022-08-24T06:33:04.252Z,23.32
2022-08-24T06:35:38.493Z,23.47
2022-08-24T06:38:06.831Z,23.60
2022-08-24T06:40:35.137Z,23.78
2022-08-24T06:43:04.416Z,23.89
2022-08-24T06:45:47.762Z,23.91
2022-08-24T06:48:17.865Z,24.08
2022-08-24T06:50:46.495Z,24.12
2022-08-24T06:53:15.009Z,24.09
2022-08-24T06:56:00.775Z,24.21
2022-08-24T06:58:32.459Z,24.24
2022-08-24T07:01:07.836Z,24.25
2022-08-24T07:03:35.067Z,24.23
2022-08-24T07:06:31.296Z,24.31
2022-08-24T07:09:01.007Z,24.39
2022-08-24T07:11:28.633Z,24.44
2022-08-24T07:13:56.051Z,24.59
2022-08-24T07:16:24.348Z,24.70
2022-08-24T07:18:57.448Z,24.77
2022-08-24T07:21:25.370Z,24.86
2022-08-24T07:23:57.407Z,25.01
2022-08-24T07:26:27.707Z,25.07
2022-08-24T07:29:05.419Z,25.09
2022-08-24T07:31:46.233Z,25.15
2022-08-24T07:34:26.296Z,25.21
2022-08-24T07:36:54.700Z,25.26
2022-08-24T07:39:22.090Z,25.31
2022-08-24T07:42:12.273Z,25.40
2022-08-24T07:44:38.048Z,25.46
2022-08-24T07:47:21.125Z,25.52
2022-08-24T07:49:52.836Z,25.55
2022-08-24T07:52:20.630Z,25.62
2022-08-24T07:54:47.871Z,25.48
2022-08-24T07:57:15.318Z,25.49
2022-08-24T07:59:42.590Z,25.50
2022-08-24T08:02:11.673Z,25.64
2022-08-24T08:04:41.350Z,25.72
2022-08-24T08:07:08.875Z,25.77
2022-08-24T08:09:38.277Z,25.84
2022-08-24T08:12:07.197Z,25.82
2022-08-24T08:14:34.815Z,25.87
2022-08-24T08:17:02.325Z,25.94
2022-08-24T08:19:29.761Z,26.06
2022-08-24T08:22:16.305Z,26.13
2022-08-24T08:25:09.586Z,26.25
2022-08-24T08:27:37.029Z,26.39
2022-08-24T08:30:06.449Z,26.43
2022-08-24T08:32:34.717Z,26.41
2022-08-24T08:35:03.125Z,26.52
2022-08-24T08:37:33.053Z,26.87
2022-08-24T08:40:00.695Z,27.59
2022-08-24T08:42:33.112Z,27.51
2022-08-24T08:45:12.846Z,27.52
2022-08-24T08:50:51.213Z,27.61
2022-08-24T08:53:19.400Z,27.71
2022-08-24T08:55:57.422Z,27.71
2022-08-24T08:58:27.698Z,27.90
2022-08-24T09:01:13.747Z,28.01
2022-08-24T09:03:54.099Z,28.21
2022-08-24T09:06:59.945Z,28.82
2022-08-24T09:09:50.551Z,30.58
2022-08-24T09:12:38.916Z,32.16
2022-08-24T09:15:06.195Z,32.22
2022-08-24T09:17:52.364Z,31.03
2022-08-24T09:20:41.747Z,31.25
2022-08-24T09:23:19.517Z,32.45
2022-08-24T09:26:05.565Z,32.23
2022-08-24T09:28:34.223Z,32.96
2022-08-24T09:31:20.152Z,32.53
2022-08-24T09:34:07.056Z,31.36
2022-08-24T09:36:39.991Z,30.69
2022-08-24T09:39:14.380Z,30.28
2022-08-24T09:41:41.556Z,29.70
2022-08-24T09:44:09.235Z,28.94
2022-08-24T09:46:36.483Z,28.77
2022-08-24T09:49:20.254Z,28.74
2022-08-24T09:52:05.965Z,28.52
2022-08-24T09:54:51.868Z,28.60
2022-08-24T09:57:23.420Z,28.61
2022-08-24T09:59:56.056Z,28.52
2022-08-24T10:02:23.953Z,28.60
2022-08-24T10:04:59.457Z,28.58
2022-08-24T10:07:45.179Z,28.54
2022-08-24T10:10:30.279Z,28.65
2022-08-24T10:13:04.129Z,28.56
2022-08-24T10:15:32.360Z,28.58
2022-08-24T10:18:32.261Z,28.59
2022-08-24T10:21:08.958Z,28.40
2022-08-24T10:23:45.360Z,28.55
2022-08-24T10:26:30.912Z,28.41
2022-08-24T10:28:58.190Z,28.47
2022-08-24T10:31:27.754Z,28.42
2022-08-24T10:33:57.969Z,28.37
2022-08-24T10:36:47.327Z,28.32
2022-08-24T10:39:39.285Z,28.31
2022-08-24T10:42:07.329Z,28.22
2022-08-24T10:44:45.011Z,28.21
2022-08-24T10:47:19.565Z,28.29
2022-08-24T10:49:46.751Z,28.34
2022-08-24T10:52:38.077Z,28.44
2022-08-24T10:55:13.280Z,28.40
2022-08-24T10:57:44.538Z,28.48
2022-08-24T11:00:18.277Z,28.49
2022-08-24T11:03:04.972Z,28.40
2022-08-24T11:06:07.545Z,28.33
2022-08-24T11:08:34.837Z,28.28
2022-08-24T11:11:07.902Z,28.16
2022-08-24T11:13:36.900Z,28.29
2022-08-24T11:16:05.592Z,28.28
2022-08-24T11:19:02.342Z,28.27
2022-08-24T11:21:48.120Z,28.38
2022-08-24T11:24:18.275Z,28.46
2022-08-24T11:26:48.398Z,28.45
2022-08-24T11:29:21.503Z,28.49
2022-08-24T11:31:50.529Z,28.55
2022-08-24T11:34:33.432Z,28.63
2022-08-24T11:37:00.777Z,28.65
2022-08-24T11:39:36.028Z,28.31
2022-08-24T11:42:12.359Z,28.29
2022-08-24T11:44:59.753Z,28.30
2022-08-24T11:47:40.605Z,28.39
2022-08-24T11:50:16.917Z,28.50
2022-08-24T11:52:46.866Z,28.47
2022-08-24T11:55:14.098Z,28.49
2022-08-24T11:57:53.461Z,28.60
2022-08-24T12:00:24.958Z,28.50
2022-08-24T12:03:30.676Z,28.57
2022-08-24T12:06:05.125Z,28.65
2022-08-24T12:08:51.081Z,28.75
2022-08-24T12:11:32.924Z,28.80
2022-08-24T12:14:06.149Z,28.74
2022-08-24T12:16:47.440Z,28.80
2022-08-24T12:19:17.976Z,28.68
2022-08-24T12:21:46.811Z,28.73
2022-08-24T12:24:16.559Z,28.80
2022-08-24T12:26:46.454Z,28.76
2022-08-24T12:29:32.323Z,28.82
2022-08-24T12:32:02.933Z,28.84
2022-08-24T12:34:36.295Z,28.82
2022-08-24T12:37:25.757Z,28.76
2022-08-24T12:40:08.866Z,28.74
2022-08-24T12:42:52.551Z,28.83
2022-08-24T12:45:21.297Z,28.88
2022-08-24T12:47:58.204Z,28.91
2022-08-24T12:50:42.785Z,28.91
2022-08-24T12:53:20.548Z,28.92
2022-08-24T12:56:06.847Z,28.87
2022-08-24T12:58:53.994Z,28.83
2022-08-24T13:01:26.421Z,28.74
2022-08-24T13:04:06.955Z,28.70
2022-08-24T13:06:59.790Z,28.77
2022-08-24T13:09:30.207Z,28.80
2022-08-24T13:12:00.952Z,28.78
2022-08-24T13:14:29.371Z,28.72
2022-08-24T13:16:56.604Z,28.75
2022-08-24T13:19:23.853Z,28.81
2022-08-24T13:21:55.922Z,28.80
2022-08-24T13:24:29.531Z,28.80
2022-08-24T13:26:59.158Z,28.83
2022-08-24T13:29:28.828Z,28.69
2022-08-24T13:31:59.362Z,28.68
2022-08-24T13:34:46.080Z,28.68
2022-08-24T13:37:15.982Z,28.77
2022-08-24T13:39:49.203Z,28.78
2022-08-24T13:42:23.439Z,28.83
2022-08-24T13:44:50.651Z,28.86
2022-08-24T13:47:27.048Z,28.82
2022-08-24T13:50:01.723Z,28.83
2022-08-24T13:52:44.787Z,28.78
2022-08-24T13:55:21.093Z,28.79
2022-08-24T13:58:10.834Z,28.55
2022-08-24T14:00:44.117Z,28.59
2022-08-24T14:03:23.574Z,28.63
2022-08-24T14:05:56.389Z,28.58
2022-08-24T14:08:40.447Z,28.59
2022-08-24T14:11:07.956Z,28.65
2022-08-24T14:13:50.207Z,28.70
2022-08-24T14:16:51.367Z,28.64
2022-08-24T14:19:44.713Z,28.64
2022-08-24T14:22:11.885Z,28.68
2022-08-24T14:24:48.771Z,28.72
2022-08-24T14:27:37.330Z,28.75
2022-08-24T14:30:19.806Z,28.72
2022-08-24T14:32:49.894Z,28.74
2022-08-24T14:35:19.535Z,28.74
2022-08-24T14:37:56.950Z,28.78
2022-08-24T14:40:37.283Z,28.82
2022-08-24T14:43:10.895Z,28.77
2022-08-24T14:45:49.956Z,28.77
2022-08-24T14:48:24.859Z,28.77
2022-08-24T14:50:55.369Z,28.78
2022-08-24T14:53:25.733Z,28.73
2022-08-24T14:56:01.207Z,28.72
2022-08-24T14:58:41.841Z,28.70
2022-08-24T15:01:25.118Z,28.72
2022-08-24T15:04:06.676Z,28.75
2022-08-24T15:06:39.862Z,28.76
2022-08-24T15:09:18.072Z,28.75
2022-08-24T15:11:47.391Z,28.76
2022-08-24T15:14:37.692Z,28.74
2022-08-24T15:17:09.490Z,28.75
2022-08-24T15:20:15.551Z,28.75
2022-08-24T15:22:48.874Z,28.78
2022-08-24T15:25:33.970Z,28.78
2022-08-24T15:28:12.591Z,28.77
2022-08-24T15:30:41.606Z,28.76
2022-08-24T15:33:19.957Z,28.76
2022-08-24T15:35:48.882Z,28.74
2022-08-24T15:38:16.572Z,28.74
2022-08-24T15:40:46.276Z,28.76
2022-08-24T15:43:13.916Z,28.78
2022-08-24T15:45:45.683Z,28.82
2022-08-24T15:48:14.818Z,28.80
2022-08-24T15:50:43.544Z,28.78
2022-08-24T15:53:29.526Z,28.78
2022-08-24T15:55:57.104Z,28.75
2022-08-24T15:58:33.810Z,28.71
2022-08-24T16:01:37.064Z,28.69
2022-08-24T16:04:15.172Z,28.71
2022-08-24T16:06:45.724Z,28.67
2022-08-24T16:09:12.918Z,28.62
2022-08-24T16:11:42.099Z,28.61
2022-08-24T16:14:14.476Z,28.62
2022-08-24T16:16:43.738Z,28.61
2022-08-24T16:19:20.635Z,28.58
2022-08-24T16:21:59.005Z,28.59
2022-08-24T16:24:28.670Z,28.59
2022-08-24T16:26:59.439Z,28.58
2022-08-24T16:29:47.044Z,28.57
2022-08-24T16:32:32.705Z,28.56
2022-08-24T16:35:18.630Z,28.54
2022-08-24T16:37:45.894Z,28.52
2022-08-24T16:40:14.253Z,28.50
2022-08-24T16:42:41.538Z,28.47
2022-08-24T16:45:10.756Z,28.44
2022-08-24T16:47:38.189Z,28.43
2022-08-24T16:50:05.961Z,28.37
2022-08-24T16:52:33.154Z,28.36
2022-08-24T16:55:02.975Z,28.34
2022-08-24T16:57:31.752Z,28.30
2022-08-24T16:59:58.962Z,28.28
2022-08-24T17:02:26.237Z,28.26
2022-08-24T17:04:54.745Z,28.24
2022-08-24T17:07:30.862Z,28.24
2022-08-24T17:10:00.680Z,28.22
2022-08-24T17:12:28.019Z,28.16
2022-08-24T17:14:56.948Z,28.13
2022-08-24T17:17:24.715Z,28.11
2022-08-24T17:19:53.624Z,28.10
2022-08-24T17:22:24.150Z,28.08
2022-08-24T17:24:51.973Z,28.06
2022-08-24T17:27:20.807Z,28.03
2022-08-24T17:29:48.233Z,28.01
2022-08-24T17:32:16.415Z,27.97
2022-08-24T17:34:43.810Z,27.96
2022-08-24T17:37:11.200Z,27.97
2022-08-24T17:39:38.685Z,27.93
2022-08-24T17:42:17.624Z,27.92
2022-08-24T17:44:53.678Z,27.88
2022-08-24T17:47:21.010Z,27.81
2022-08-24T17:49:48.255Z,27.77
2022-08-24T17:52:15.546Z,27.75
2022-08-24T17:54:42.778Z,27.73
2022-08-24T17:57:11.973Z,27.69
2022-08-24T17:59:39.258Z,27.64
2022-08-24T18:02:08.908Z,27.63
2022-08-24T18:04:37.463Z,27.58
2022-08-24T18:07:07.778Z,27.61
2022-08-24T18:09:41.211Z,27.58
2022-08-24T18:12:08.884Z,27.53
2022-08-24T18:14:36.158Z,27.51
2022-08-24T18:17:05.557Z,27.48
2022-08-24T18:19:34.019Z,27.48
2022-08-24T18:22:01.956Z,27.46
2022-08-24T18:24:32.693Z,27.48
2022-08-24T18:27:01.951Z,27.47
2022-08-24T18:29:31.954Z,27.43
2022-08-24T18:32:01.448Z,27.38
2022-08-24T18:34:30.777Z,27.32
2022-08-24T18:36:58.134Z,27.26
2022-08-24T18:39:25.341Z,27.22
2022-08-24T18:41:53.049Z,27.18
2022-08-24T18:44:22.231Z,27.16
2022-08-24T18:46:49.692Z,27.16
2022-08-24T18:49:17.867Z,27.14
2022-08-24T18:51:48.070Z,27.12
2022-08-24T18:54:17.622Z,27.10
2022-08-24T18:56:45.111Z,27.10
2022-08-24T18:59:14.636Z,27.09
2022-08-24T19:02:04.463Z,27.06
2022-08-24T19:04:33.010Z,27.01
2022-08-24T19:07:02.322Z,26.93
2022-08-24T19:09:34.183Z,26.88
2022-08-24T19:12:02.990Z,26.87
2022-08-24T19:14:30.755Z,26.75
2022-08-24T19:16:58.069Z,26.79
2022-08-24T19:19:25.574Z,26.79
2022-08-24T19:21:53.331Z,26.77
2022-08-24T19:24:23.533Z,26.87
2022-08-24T19:26:50.810Z,26.86
2022-08-24T19:29:38.840Z,26.88
2022-08-24T19:32:10.126Z,26.88
2022-08-24T19:34:50.290Z,26.87
2022-08-24T19:37:17.543Z,26.86
2022-08-24T19:39:45.854Z,26.80
2022-08-24T19:42:14.028Z,26.76
2022-08-24T19:44:59.842Z,26.68
2022-08-24T19:47:27.049Z,26.67
2022-08-24T19:49:54.746Z,26.64
2022-08-24T19:52:22.330Z,26.65
2022-08-24T19:54:49.616Z,26.65
2022-08-24T19:57:28.833Z,26.62
2022-08-24T20:00:14.685Z,26.59
2022-08-24T20:02:42.002Z,26.55
2022-08-24T20:05:09.261Z,26.58
2022-08-24T20:07:36.541Z,26.55
2022-08-24T20:10:12.347Z,26.55
2022-08-24T20:12:40.810Z,26.55
2022-08-24T20:15:08.444Z,26.56
2022-08-24T20:17:36.303Z,26.51
2022-08-24T20:20:05.115Z,26.48
2022-08-24T20:22:32.396Z,26.41
2022-08-24T20:24:59.634Z,26.37
2022-08-24T20:27:27.678Z,26.39
2022-08-24T20:29:55.260Z,26.40
2022-08-24T20:32:22.912Z,26.40
2022-08-24T20:34:50.267Z,26.40
2022-08-24T20:37:22.301Z,26.39
2022-08-24T20:39:49.755Z,26.39
2022-08-24T20:42:21.060Z,26.40
2022-08-24T20:44:50.284Z,26.36
2022-08-24T20:47:18.582Z,26.35
2022-08-24T20:49:45.910Z,26.27
2022-08-24T20:52:13.291Z,26.17
2022-08-24T20:54:41.004Z,26.29
2022-08-24T20:57:10.086Z,26.29
2022-08-24T20:59:37.393Z,26.22
2022-08-24T21:02:04.857Z,26.14
2022-08-24T21:04:32.339Z,26.03
2022-08-24T21:06:59.745Z,25.94
2022-08-24T21:09:27.028Z,25.90
2022-08-24T21:11:54.682Z,25.90
2022-08-24T21:14:22.152Z,25.89
2022-08-24T21:16:49.473Z,25.83
2022-08-24T21:19:17.889Z,25.75
2022-08-24T21:21:47.085Z,25.67
2022-08-24T21:24:15.724Z,25.67
2022-08-24T21:26:43.132Z,25.67
2022-08-24T21:29:10.448Z,25.61
2022-08-24T21:31:37.871Z,25.56
2022-08-24T21:34:24.360Z,25.52
2022-08-24T21:36:54.246Z,25.55
2022-08-24T21:39:21.790Z,25.48
2022-08-24T21:41:49.055Z,25.40
2022-08-24T21:44:16.939Z,25.27
2022-08-24T21:46:44.281Z,25.15
2022-08-24T21:49:12.205Z,25.07
2022-08-24T21:51:39.996Z,25.02
2022-08-24T21:54:07.694Z,24.95
2022-08-24T21:56:35.140Z,24.92
2022-08-24T21:59:03.203Z,24.88
2022-08-24T22:01:30.610Z,24.84
2022-08-24T22:04:01.573Z,24.81
2022-08-24T22:06:31.625Z,24.77
2022-08-24T22:08:59.848Z,24.74
2022-08-24T22:11:27.884Z,24.73
2022-08-24T22:13:55.455Z,24.70
2022-08-24T22:16:23.151Z,24.65
2022-08-24T22:18:50.518Z,24.64
2022-08-24T22:21:20.336Z,24.58
2022-08-24T22:23:47.677Z,24.43
2022-08-24T22:26:15.422Z,24.46
2022-08-24T22:28:42.884Z,24.45
2022-08-24T22:31:18.121Z,24.43
2022-08-24T22:33:45.942Z,24.43
2022-08-24T22:36:13.718Z,24.43
2022-08-24T22:38:41.276Z,24.42
2022-08-24T22:41:09.261Z,24.38
2022-08-24T22:43:55.077Z,24.38
2022-08-24T22:46:22.998Z,24.35
2022-08-24T22:48:50.459Z,24.30
2022-08-24T22:51:18.691Z,24.28
2022-08-24T22:53:46.276Z,24.24
2022-08-24T22:56:14.487Z,24.20
2022-08-24T22:58:41.801Z,24.18
2022-08-24T23:01:09.668Z,24.11
2022-08-24T23:03:37.138Z,24.09
2022-08-24T23:06:04.450Z,24.07
2022-08-24T23:08:31.758Z,24.07
2022-08-24T23:10:59.190Z,24.03
2022-08-24T23:13:28.625Z,23.94
2022-08-24T23:15:56.150Z,23.93
2022-08-24T23:18:42.052Z,23.95
2022-08-24T23:21:12.864Z,23.94
2022-08-24T23:23:40.163Z,23.91
2022-08-24T23:26:07.873Z,23.88
2022-08-24T23:28:39.426Z,23.85
2022-08-24T23:31:07.571Z,23.83
2022-08-24T23:33:39.348Z,23.82
2022-08-24T23:36:13.950Z,23.82
2022-08-24T23:38:41.489Z,23.75
2022-08-24T23:41:13.473Z,23.73
2022-08-24T23:43:41.442Z,23.74
2022-08-24T23:46:10.389Z,23.72
2022-08-24T23:48:38.449Z,23.68
2022-08-24T23:51:09.519Z,23.66
2022-08-24T23:53:37.594Z,23.65
2022-08-24T23:56:13.182Z,23.58
2022-08-24T23:58:41.336Z,23.58
